sensor_id;sensor_type;location;lat;lon;timestamp;temperature;humidity
29237;DHT22;16266;50.866;4.398;2022-10-30T00:01:57;18.30;99.90
29237;DHT22;16266;50.866;4.398;2022-10-30T00:04:22;18.10;99.90
29237;DHT22;16266;50.866;4.398;2022-10-30T00:06:48;18.10;99.90
29237;DHT22;16266;50.866;4.398;2022-10-30T00:09:14;18.00;99.90
29237;DHT22;16266;50.866;4.398;2022-10-30T00:11:40;18.00;99.90
29237;DHT22;16266;50.866;4.398;2022-10-30T00:14:06;17.90;99.90
29237;DHT22;16266;50.866;4.398;2022-10-30T00:16:32;17.80;99.90
29237;DHT22;16266;50.866;4.398;2022-10-30T00:18:58;17.80;99.90
29237;DHT22;16266;50.866;4.398;2022-10-30T00:21:24;17.80;99.90
29237;DHT22;16266;50.866;4.398;2022-10-30T00:23:51;17.70;99.90
29237;DHT22;16266;50.866;4.398;2022-10-30T00:26:19;17.70;99.90
29237;DHT22;16266;50.866;4.398;2022-10-30T00:28:49;17.60;99.90
29237;DHT22;16266;50.866;4.398;2022-10-30T00:31:15;17.50;99.90
29237;DHT22;16266;50.866;4.398;2022-10-30T00:33:41;17.60;99.90
29237;DHT22;16266;50.866;4.398;2022-10-30T00:36:06;17.50;99.90
29237;DHT22;16266;50.866;4.398;2022-10-30T00:38:32;17.50;99.90
29237;DHT22;16266;50.866;4.398;2022-10-30T00:40:58;17.60;99.90
29237;DHT22;16266;50.866;4.398;2022-10-30T00:43:37;17.50;99.90
29237;DHT22;16266;50.866;4.398;2022-10-30T00:49:08;17.50;99.90
29237;DHT22;16266;50.866;4.398;2022-10-30T00:51:36;17.40;99.90
29237;DHT22;16266;50.866;4.398;2022-10-30T00:54:03;17.30;99.90
29237;DHT22;16266;50.866;4.398;2022-10-30T00:56:30;17.20;99.90
29237;DHT22;16266;50.866;4.398;2022-10-30T00:58:59;17.20;99.90
29237;DHT22;16266;50.866;4.398;2022-10-30T01:01:26;17.10;99.90
29237;DHT22;16266;50.866;4.398;2022-10-30T01:03:56;17.10;99.90
29237;DHT22;16266;50.866;4.398;2022-10-30T01:06:22;17.20;99.90
29237;DHT22;16266;50.866;4.398;2022-10-30T01:09:07;17.10;99.90
29237;DHT22;16266;50.866;4.398;2022-10-30T01:11:33;17.00;99.90
29237;DHT22;16266;50.866;4.398;2022-10-30T01:14:03;16.90;99.90
29237;DHT22;16266;50.866;4.398;2022-10-30T01:16:56;17.00;99.90
29237;DHT22;16266;50.866;4.398;2022-10-30T01:19:49;17.10;99.90
29237;DHT22;16266;50.866;4.398;2022-10-30T01:27:48;16.80;99.90
29237;DHT22;16266;50.866;4.398;2022-10-30T01:33:23;16.80;99.90
29237;DHT22;16266;50.866;4.398;2022-10-30T01:38:46;16.80;99.90
29237;DHT22;16266;50.866;4.398;2022-10-30T01:41:13;16.80;99.90
29237;DHT22;16266;50.866;4.398;2022-10-30T01:43:40;16.80;99.90
29237;DHT22;16266;50.866;4.398;2022-10-30T01:46:57;16.70;99.90
29237;DHT22;16266;50.866;4.398;2022-10-30T01:54:31;16.80;99.90
29237;DHT22;16266;50.866;4.398;2022-10-30T01:59:55;16.90;99.90
29237;DHT22;16266;50.866;4.398;2022-10-30T02:02:22;16.90;99.90
29237;DHT22;16266;50.866;4.398;2022-10-30T02:04:49;16.90;99.90
29237;DHT22;16266;50.866;4.398;2022-10-30T02:07:15;17.00;99.90
29237;DHT22;16266;50.866;4.398;2022-10-30T02:09:40;16.90;99.90
29237;DHT22;16266;50.866;4.398;2022-10-30T02:12:07;16.90;99.90
29237;DHT22;16266;50.866;4.398;2022-10-30T02:14:37;16.90;99.90
29237;DHT22;16266;50.866;4.398;2022-10-30T02:17:06;16.80;99.90
29237;DHT22;16266;50.866;4.398;2022-10-30T02:19:32;16.80;99.90
29237;DHT22;16266;50.866;4.398;2022-10-30T02:21:57;16.70;99.90
29237;DHT22;16266;50.866;4.398;2022-10-30T02:24:23;16.70;99.90
29237;DHT22;16266;50.866;4.398;2022-10-30T02:26:49;16.60;99.90
29237;DHT22;16266;50.866;4.398;2022-10-30T02:29:14;16.70;99.90
29237;DHT22;16266;50.866;4.398;2022-10-30T02:31:40;16.70;99.90
29237;DHT22;16266;50.866;4.398;2022-10-30T02:34:05;16.70;99.90
29237;DHT22;16266;50.866;4.398;2022-10-30T02:36:31;16.80;99.90
29237;DHT22;16266;50.866;4.398;2022-10-30T02:38:57;16.80;99.90
29237;DHT22;16266;50.866;4.398;2022-10-30T02:41:23;16.80;99.90
29237;DHT22;16266;50.866;4.398;2022-10-30T02:43:50;16.70;99.90
29237;DHT22;16266;50.866;4.398;2022-10-30T02:46:18;16.70;99.90
29237;DHT22;16266;50.866;4.398;2022-10-30T02:48:43;16.70;99.90
29237;DHT22;16266;50.866;4.398;2022-10-30T02:51:09;16.70;99.90
29237;DHT22;16266;50.866;4.398;2022-10-30T02:53:35;16.70;99.90
29237;DHT22;16266;50.866;4.398;2022-10-30T02:56:05;16.60;99.90
29237;DHT22;16266;50.866;4.398;2022-10-30T02:58:31;16.60;99.90
29237;DHT22;16266;50.866;4.398;2022-10-30T03:00:57;16.60;99.90
29237;DHT22;16266;50.866;4.398;2022-10-30T03:03:22;16.50;99.90
29237;DHT22;16266;50.866;4.398;2022-10-30T03:05:48;16.30;99.90
29237;DHT22;16266;50.866;4.398;2022-10-30T03:08:14;16.20;99.90
29237;DHT22;16266;50.866;4.398;2022-10-30T03:10:39;16.20;99.90
29237;DHT22;16266;50.866;4.398;2022-10-30T03:13:05;16.20;99.90
29237;DHT22;16266;50.866;4.398;2022-10-30T03:15:30;16.20;99.90
29237;DHT22;16266;50.866;4.398;2022-10-30T03:17:56;16.30;99.90
29237;DHT22;16266;50.866;4.398;2022-10-30T03:20:22;16.40;99.90
29237;DHT22;16266;50.866;4.398;2022-10-30T03:22:47;16.50;99.90
29237;DHT22;16266;50.866;4.398;2022-10-30T03:25:13;16.30;99.90
29237;DHT22;16266;50.866;4.398;2022-10-30T03:27:39;16.40;99.90
29237;DHT22;16266;50.866;4.398;2022-10-30T03:30:05;16.40;99.90
29237;DHT22;16266;50.866;4.398;2022-10-30T03:32:30;16.50;99.90
29237;DHT22;16266;50.866;4.398;2022-10-30T03:34:56;16.50;99.90
29237;DHT22;16266;50.866;4.398;2022-10-30T03:37:22;16.50;99.90
29237;DHT22;16266;50.866;4.398;2022-10-30T03:39:47;16.40;99.90
29237;DHT22;16266;50.866;4.398;2022-10-30T03:42:13;16.30;99.90
29237;DHT22;16266;50.866;4.398;2022-10-30T03:44:38;16.30;99.90
29237;DHT22;16266;50.866;4.398;2022-10-30T03:47:04;16.30;99.90
29237;DHT22;16266;50.866;4.398;2022-10-30T03:49:30;16.30;99.90
29237;DHT22;16266;50.866;4.398;2022-10-30T03:51:55;16.30;99.90
29237;DHT22;16266;50.866;4.398;2022-10-30T03:54:21;16.40;99.90
29237;DHT22;16266;50.866;4.398;2022-10-30T03:56:46;16.40;99.90
29237;DHT22;16266;50.866;4.398;2022-10-30T03:59:12;16.40;99.90
29237;DHT22;16266;50.866;4.398;2022-10-30T04:01:38;16.30;99.90
29237;DHT22;16266;50.866;4.398;2022-10-30T04:04:03;16.20;99.90
29237;DHT22;16266;50.866;4.398;2022-10-30T04:06:29;16.20;99.90
29237;DHT22;16266;50.866;4.398;2022-10-30T04:08:55;16.10;99.90
29237;DHT22;16266;50.866;4.398;2022-10-30T04:11:20;16.00;99.90
29237;DHT22;16266;50.866;4.398;2022-10-30T04:13:46;16.10;99.90
29237;DHT22;16266;50.866;4.398;2022-10-30T04:16:12;16.10;99.90
29237;DHT22;16266;50.866;4.398;2022-10-30T04:18:37;16.20;99.90
29237;DHT22;16266;50.866;4.398;2022-10-30T04:21:04;16.10;99.90
29237;DHT22;16266;50.866;4.398;2022-10-30T04:23:30;16.20;99.90
29237;DHT22;16266;50.866;4.398;2022-10-30T04:25:55;16.10;99.90
29237;DHT22;16266;50.866;4.398;2022-10-30T04:28:21;15.90;99.90
29237;DHT22;16266;50.866;4.398;2022-10-30T04:30:47;15.90;99.90
29237;DHT22;16266;50.866;4.398;2022-10-30T04:33:13;15.90;99.90
29237;DHT22;16266;50.866;4.398;2022-10-30T04:35:40;15.80;99.90
29237;DHT22;16266;50.866;4.398;2022-10-30T04:38:08;15.80;99.90
29237;DHT22;16266;50.866;4.398;2022-10-30T04:40:37;15.70;99.90
29237;DHT22;16266;50.866;4.398;2022-10-30T04:43:04;15.70;99.90
29237;DHT22;16266;50.866;4.398;2022-10-30T04:45:29;15.70;99.90
29237;DHT22;16266;50.866;4.398;2022-10-30T04:48:09;15.60;99.90
29237;DHT22;16266;50.866;4.398;2022-10-30T04:50:35;15.60;99.90
29237;DHT22;16266;50.866;4.398;2022-10-30T04:53:15;15.60;99.90
29237;DHT22;16266;50.866;4.398;2022-10-30T04:55:41;15.50;99.90
29237;DHT22;16266;50.866;4.398;2022-10-30T04:58:08;15.50;99.90
29237;DHT22;16266;50.866;4.398;2022-10-30T05:00:34;15.50;99.90
29237;DHT22;16266;50.866;4.398;2022-10-30T05:03:02;15.50;99.90
29237;DHT22;16266;50.866;4.398;2022-10-30T05:05:29;15.50;99.90
29237;DHT22;16266;50.866;4.398;2022-10-30T05:07:55;15.50;99.90
29237;DHT22;16266;50.866;4.398;2022-10-30T05:10:21;15.40;99.90
29237;DHT22;16266;50.866;4.398;2022-10-30T05:12:46;15.40;99.90
29237;DHT22;16266;50.866;4.398;2022-10-30T05:15:13;15.40;99.90
29237;DHT22;16266;50.866;4.398;2022-10-30T05:17:39;15.30;99.90
29237;DHT22;16266;50.866;4.398;2022-10-30T05:20:05;15.40;99.90
29237;DHT22;16266;50.866;4.398;2022-10-30T05:22:31;15.20;99.90
29237;DHT22;16266;50.866;4.398;2022-10-30T05:24:57;15.30;99.90
29237;DHT22;16266;50.866;4.398;2022-10-30T05:27:23;15.20;99.90
29237;DHT22;16266;50.866;4.398;2022-10-30T05:29:49;15.10;99.90
29237;DHT22;16266;50.866;4.398;2022-10-30T05:32:15;15.10;99.90
29237;DHT22;16266;50.866;4.398;2022-10-30T05:34:41;15.10;99.90
29237;DHT22;16266;50.866;4.398;2022-10-30T05:37:06;15.10;99.90
29237;DHT22;16266;50.866;4.398;2022-10-30T05:39:38;15.00;99.90
29237;DHT22;16266;50.866;4.398;2022-10-30T05:42:04;14.80;99.90
29237;DHT22;16266;50.866;4.398;2022-10-30T05:44:30;14.80;99.90
29237;DHT22;16266;50.866;4.398;2022-10-30T05:46:56;14.80;99.90
29237;DHT22;16266;50.866;4.398;2022-10-30T05:49:21;14.80;99.90
29237;DHT22;16266;50.866;4.398;2022-10-30T05:51:49;14.90;99.90
29237;DHT22;16266;50.866;4.398;2022-10-30T05:54:14;14.90;99.90
29237;DHT22;16266;50.866;4.398;2022-10-30T05:56:42;14.90;99.90
29237;DHT22;16266;50.866;4.398;2022-10-30T05:59:08;14.80;99.90
29237;DHT22;16266;50.866;4.398;2022-10-30T06:01:33;14.80;99.90
29237;DHT22;16266;50.866;4.398;2022-10-30T06:04:00;14.80;99.90
29237;DHT22;16266;50.866;4.398;2022-10-30T06:06:25;14.70;99.90
29237;DHT22;16266;50.866;4.398;2022-10-30T06:08:51;14.70;99.90
29237;DHT22;16266;50.866;4.398;2022-10-30T06:11:16;14.70;99.90
29237;DHT22;16266;50.866;4.398;2022-10-30T06:13:50;14.70;99.90
29237;DHT22;16266;50.866;4.398;2022-10-30T06:16:20;14.80;99.90
29237;DHT22;16266;50.866;4.398;2022-10-30T06:18:46;14.90;99.90
29237;DHT22;16266;50.866;4.398;2022-10-30T06:21:16;14.90;99.90
29237;DHT22;16266;50.866;4.398;2022-10-30T06:23:46;14.90;99.90
29237;DHT22;16266;50.866;4.398;2022-10-30T06:26:24;14.80;99.90
29237;DHT22;16266;50.866;4.398;2022-10-30T06:28:50;14.80;99.90
29237;DHT22;16266;50.866;4.398;2022-10-30T06:31:23;14.60;99.90
29237;DHT22;16266;50.866;4.398;2022-10-30T06:33:50;14.60;99.90
29237;DHT22;16266;50.866;4.398;2022-10-30T06:36:17;14.60;99.90
29237;DHT22;16266;50.866;4.398;2022-10-30T06:38:42;14.70;99.90
29237;DHT22;16266;50.866;4.398;2022-10-30T06:41:08;14.80;99.90
29237;DHT22;16266;50.866;4.398;2022-10-30T06:43:34;14.90;99.90
29237;DHT22;16266;50.866;4.398;2022-10-30T06:46:00;15.00;99.90
29237;DHT22;16266;50.866;4.398;2022-10-30T06:48:26;15.00;99.90
29237;DHT22;16266;50.866;4.398;2022-10-30T06:50:55;15.10;99.90
29237;DHT22;16266;50.866;4.398;2022-10-30T06:53:21;15.20;99.90
29237;DHT22;16266;50.866;4.398;2022-10-30T06:55:58;15.30;99.90
29237;DHT22;16266;50.866;4.398;2022-10-30T06:58:24;15.40;99.90
29237;DHT22;16266;50.866;4.398;2022-10-30T07:00:51;15.50;99.90
29237;DHT22;16266;50.866;4.398;2022-10-30T07:03:18;15.50;99.90
29237;DHT22;16266;50.866;4.398;2022-10-30T07:05:43;15.70;99.90
29237;DHT22;16266;50.866;4.398;2022-10-30T07:08:09;15.80;99.90
29237;DHT22;16266;50.866;4.398;2022-10-30T07:10:35;15.90;99.90
29237;DHT22;16266;50.866;4.398;2022-10-30T07:13:00;16.10;99.90
29237;DHT22;16266;50.866;4.398;2022-10-30T07:15:26;16.20;99.90
29237;DHT22;16266;50.866;4.398;2022-10-30T07:18:00;16.30;99.90
29237;DHT22;16266;50.866;4.398;2022-10-30T07:20:28;16.60;99.90
29237;DHT22;16266;50.866;4.398;2022-10-30T07:22:54;17.00;99.90
29237;DHT22;16266;50.866;4.398;2022-10-30T07:25:20;17.50;99.90
29237;DHT22;16266;50.866;4.398;2022-10-30T07:27:48;17.90;99.90
29237;DHT22;16266;50.866;4.398;2022-10-30T07:30:21;18.40;99.90
29237;DHT22;16266;50.866;4.398;2022-10-30T07:32:58;18.70;99.90
29237;DHT22;16266;50.866;4.398;2022-10-30T07:35:26;19.10;99.90
29237;DHT22;16266;50.866;4.398;2022-10-30T07:37:52;19.40;99.90
29237;DHT22;16266;50.866;4.398;2022-10-30T07:40:18;19.80;99.90
29237;DHT22;16266;50.866;4.398;2022-10-30T07:42:44;20.10;99.90
29237;DHT22;16266;50.866;4.398;2022-10-30T07:45:09;20.40;99.90
29237;DHT22;16266;50.866;4.398;2022-10-30T07:47:43;20.60;99.90
29237;DHT22;16266;50.866;4.398;2022-10-30T07:50:09;20.70;99.90
29237;DHT22;16266;50.866;4.398;2022-10-30T07:52:35;21.00;99.90
29237;DHT22;16266;50.866;4.398;2022-10-30T07:55:01;21.20;99.90
29237;DHT22;16266;50.866;4.398;2022-10-30T07:57:36;21.20;99.90
29237;DHT22;16266;50.866;4.398;2022-10-30T08:00:04;21.30;99.90
29237;DHT22;16266;50.866;4.398;2022-10-30T08:02:30;21.50;99.90
29237;DHT22;16266;50.866;4.398;2022-10-30T08:04:56;21.80;99.90
29237;DHT22;16266;50.866;4.398;2022-10-30T08:07:22;22.30;99.90
29237;DHT22;16266;50.866;4.398;2022-10-30T08:09:47;22.70;99.90
29237;DHT22;16266;50.866;4.398;2022-10-30T08:12:14;23.10;99.90
29237;DHT22;16266;50.866;4.398;2022-10-30T08:14:40;23.50;99.90
29237;DHT22;16266;50.866;4.398;2022-10-30T08:17:05;24.10;99.90
29237;DHT22;16266;50.866;4.398;2022-10-30T08:19:35;24.70;99.90
29237;DHT22;16266;50.866;4.398;2022-10-30T08:22:00;25.10;99.90
29237;DHT22;16266;50.866;4.398;2022-10-30T08:24:26;25.40;99.90
29237;DHT22;16266;50.866;4.398;2022-10-30T08:26:52;25.30;99.90
29237;DHT22;16266;50.866;4.398;2022-10-30T08:29:18;25.10;99.90
29237;DHT22;16266;50.866;4.398;2022-10-30T08:31:43;24.80;99.90
29237;DHT22;16266;50.866;4.398;2022-10-30T08:34:12;24.50;99.90
29237;DHT22;16266;50.866;4.398;2022-10-30T08:36:37;24.10;99.90
29237;DHT22;16266;50.866;4.398;2022-10-30T08:39:03;23.70;99.90
29237;DHT22;16266;50.866;4.398;2022-10-30T08:41:29;23.30;99.90
29237;DHT22;16266;50.866;4.398;2022-10-30T08:43:54;23.00;99.90
29237;DHT22;16266;50.866;4.398;2022-10-30T08:46:20;22.90;99.90
29237;DHT22;16266;50.866;4.398;2022-10-30T08:48:46;22.80;99.90
29237;DHT22;16266;50.866;4.398;2022-10-30T08:51:11;23.20;99.90
29237;DHT22;16266;50.866;4.398;2022-10-30T08:53:37;24.20;99.90
29237;DHT22;16266;50.866;4.398;2022-10-30T08:56:03;25.00;99.90
29237;DHT22;16266;50.866;4.398;2022-10-30T08:58:29;25.70;99.90
29237;DHT22;16266;50.866;4.398;2022-10-30T09:00:55;26.30;99.90
29237;DHT22;16266;50.866;4.398;2022-10-30T09:03:21;26.70;99.90
29237;DHT22;16266;50.866;4.398;2022-10-30T09:05:47;26.80;99.90
29237;DHT22;16266;50.866;4.398;2022-10-30T09:08:12;27.00;99.90
29237;DHT22;16266;50.866;4.398;2022-10-30T09:10:38;27.10;99.90
29237;DHT22;16266;50.866;4.398;2022-10-30T09:13:04;27.60;99.90
29237;DHT22;16266;50.866;4.398;2022-10-30T09:15:30;28.00;99.20
29237;DHT22;16266;50.866;4.398;2022-10-30T09:18:01;28.10;98.80
29237;DHT22;16266;50.866;4.398;2022-10-30T09:20:27;28.30;97.50
29237;DHT22;16266;50.866;4.398;2022-10-30T09:22:53;28.70;96.90
29237;DHT22;16266;50.866;4.398;2022-10-30T09:25:19;28.30;96.20
29237;DHT22;16266;50.866;4.398;2022-10-30T09:27:45;28.30;96.70
29237;DHT22;16266;50.866;4.398;2022-10-30T09:30:14;28.70;95.40
29237;DHT22;16266;50.866;4.398;2022-10-30T09:32:40;29.60;94.90
29237;DHT22;16266;50.866;4.398;2022-10-30T09:35:06;30.50;92.50
29237;DHT22;16266;50.866;4.398;2022-10-30T09:37:34;31.50;90.20
29237;DHT22;16266;50.866;4.398;2022-10-30T09:39:59;32.30;87.10
29237;DHT22;16266;50.866;4.398;2022-10-30T09:42:47;32.60;81.70
29237;DHT22;16266;50.866;4.398;2022-10-30T09:45:28;33.20;77.40
29237;DHT22;16266;50.866;4.398;2022-10-30T09:48:29;33.80;73.70
29237;DHT22;16266;50.866;4.398;2022-10-30T09:57:03;33.80;66.70
29237;DHT22;16266;50.866;4.398;2022-10-30T09:59:49;32.90;66.60
29237;DHT22;16266;50.866;4.398;2022-10-30T10:02:34;32.30;67.00
29237;DHT22;16266;50.866;4.398;2022-10-30T10:05:14;31.50;70.50
29237;DHT22;16266;50.866;4.398;2022-10-30T10:07:45;32.10;68.80
29237;DHT22;16266;50.866;4.398;2022-10-30T10:10:41;32.30;69.60
29237;DHT22;16266;50.866;4.398;2022-10-30T10:13:19;31.60;69.20
29237;DHT22;16266;50.866;4.398;2022-10-30T10:15:53;31.10;70.30
29237;DHT22;16266;50.866;4.398;2022-10-30T10:18:27;30.20;73.00
29237;DHT22;16266;50.866;4.398;2022-10-30T10:20:58;29.30;76.00
29237;DHT22;16266;50.866;4.398;2022-10-30T10:23:40;28.60;80.20
29237;DHT22;16266;50.866;4.398;2022-10-30T10:26:30;27.90;85.40
29237;DHT22;16266;50.866;4.398;2022-10-30T10:29:22;27.60;88.20
29237;DHT22;16266;50.866;4.398;2022-10-30T10:40:15;26.60;92.80
29237;DHT22;16266;50.866;4.398;2022-10-30T10:51:14;26.00;96.30
29237;DHT22;16266;50.866;4.398;2022-10-30T10:53:53;26.00;96.70
29237;DHT22;16266;50.866;4.398;2022-10-30T10:56:25;25.80;97.20
29237;DHT22;16266;50.866;4.398;2022-10-30T10:59:02;25.70;97.00
29237;DHT22;16266;50.866;4.398;2022-10-30T11:01:37;25.60;97.90
29237;DHT22;16266;50.866;4.398;2022-10-30T11:04:17;25.60;98.20
29237;DHT22;16266;50.866;4.398;2022-10-30T11:06:48;25.80;98.40
29237;DHT22;16266;50.866;4.398;2022-10-30T11:09:20;25.90;98.70
29237;DHT22;16266;50.866;4.398;2022-10-30T11:11:50;25.90;99.00
29237;DHT22;16266;50.866;4.398;2022-10-30T11:14:24;25.80;98.90
29237;DHT22;16266;50.866;4.398;2022-10-30T11:17:10;25.90;99.20
29237;DHT22;16266;50.866;4.398;2022-10-30T11:19:37;25.80;99.30
29237;DHT22;16266;50.866;4.398;2022-10-30T11:22:41;25.90;99.60
29237;DHT22;16266;50.866;4.398;2022-10-30T11:25:21;26.50;98.90
29237;DHT22;16266;50.866;4.398;2022-10-30T11:27:54;27.80;96.20
29237;DHT22;16266;50.866;4.398;2022-10-30T11:30:24;27.80;95.10
29237;DHT22;16266;50.866;4.398;2022-10-30T11:32:51;27.60;95.60
29237;DHT22;16266;50.866;4.398;2022-10-30T11:35:18;27.00;96.00
29237;DHT22;16266;50.866;4.398;2022-10-30T11:37:49;27.40;96.00
29237;DHT22;16266;50.866;4.398;2022-10-30T11:40:18;27.70;95.40
29237;DHT22;16266;50.866;4.398;2022-10-30T11:42:57;27.60;95.80
29237;DHT22;16266;50.866;4.398;2022-10-30T11:45:27;27.50;95.90
29237;DHT22;16266;50.866;4.398;2022-10-30T11:47:55;27.60;95.50
29237;DHT22;16266;50.866;4.398;2022-10-30T11:50:29;27.60;95.90
29237;DHT22;16266;50.866;4.398;2022-10-30T11:53:01;27.30;95.70
29237;DHT22;16266;50.866;4.398;2022-10-30T11:57:56;26.90;96.50
29237;DHT22;16266;50.866;4.398;2022-10-30T12:00:27;26.80;96.60
29237;DHT22;16266;50.866;4.398;2022-10-30T12:02:55;26.60;96.20
29237;DHT22;16266;50.866;4.398;2022-10-30T12:07:50;25.60;97.80
29237;DHT22;16266;50.866;4.398;2022-10-30T12:10:27;25.60;98.20
29237;DHT22;16266;50.866;4.398;2022-10-30T12:12:53;25.70;97.90
29237;DHT22;16266;50.866;4.398;2022-10-30T12:15:24;25.70;98.60
29237;DHT22;16266;50.866;4.398;2022-10-30T12:17:58;25.80;98.10
29237;DHT22;16266;50.866;4.398;2022-10-30T12:20:25;25.60;98.30
29237;DHT22;16266;50.866;4.398;2022-10-30T12:22:50;25.60;98.20
29237;DHT22;16266;50.866;4.398;2022-10-30T12:27:48;25.40;98.40
29237;DHT22;16266;50.866;4.398;2022-10-30T12:30:19;25.30;98.70
29237;DHT22;16266;50.866;4.398;2022-10-30T12:32:56;25.40;98.60
29237;DHT22;16266;50.866;4.398;2022-10-30T12:35:56;25.30;99.50
29237;DHT22;16266;50.866;4.398;2022-10-30T12:38:28;25.50;98.90
29237;DHT22;16266;50.866;4.398;2022-10-30T12:41:15;25.50;98.80
29237;DHT22;16266;50.866;4.398;2022-10-30T12:43:47;25.60;98.90
29237;DHT22;16266;50.866;4.398;2022-10-30T12:49:50;25.60;98.60
29237;DHT22;16266;50.866;4.398;2022-10-30T12:52:26;25.30;98.80
29237;DHT22;16266;50.866;4.398;2022-10-30T12:55:22;25.20;99.30
29237;DHT22;16266;50.866;4.398;2022-10-30T13:01:03;25.00;99.90
29237;DHT22;16266;50.866;4.398;2022-10-30T13:03:41;24.70;99.90
29237;DHT22;16266;50.866;4.398;2022-10-30T13:06:18;24.40;99.90
29237;DHT22;16266;50.866;4.398;2022-10-30T13:11:36;24.20;99.90
29237;DHT22;16266;50.866;4.398;2022-10-30T13:14:10;24.00;99.90
29237;DHT22;16266;50.866;4.398;2022-10-30T13:16:37;23.90;99.90
29237;DHT22;16266;50.866;4.398;2022-10-30T13:19:04;23.60;99.90
29237;DHT22;16266;50.866;4.398;2022-10-30T13:22:14;23.30;99.90
29237;DHT22;16266;50.866;4.398;2022-10-30T13:25:09;23.40;99.90
29237;DHT22;16266;50.866;4.398;2022-10-30T13:30:14;23.20;99.90
29237;DHT22;16266;50.866;4.398;2022-10-30T13:35:47;23.20;99.90
29237;DHT22;16266;50.866;4.398;2022-10-30T13:47:44;23.00;99.90
29237;DHT22;16266;50.866;4.398;2022-10-30T13:52:29;22.90;99.90
29237;DHT22;16266;50.866;4.398;2022-10-30T13:55:01;22.80;99.90
29237;DHT22;16266;50.866;4.398;2022-10-30T13:57:35;22.60;99.90
29237;DHT22;16266;50.866;4.398;2022-10-30T14:05:52;22.20;99.90
29237;DHT22;16266;50.866;4.398;2022-10-30T14:09:03;22.00;99.90
29237;DHT22;16266;50.866;4.398;2022-10-30T14:11:26;21.90;99.90
29237;DHT22;16266;50.866;4.398;2022-10-30T14:14:35;21.70;99.90
29237;DHT22;16266;50.866;4.398;2022-10-30T14:16:44;21.50;99.90
29237;DHT22;16266;50.866;4.398;2022-10-30T14:19:12;21.50;99.90
29237;DHT22;16266;50.866;4.398;2022-10-30T14:21:44;21.50;99.90
29237;DHT22;16266;50.866;4.398;2022-10-30T14:24:26;21.40;99.90
29237;DHT22;16266;50.866;4.398;2022-10-30T14:32:01;21.40;99.90
29237;DHT22;16266;50.866;4.398;2022-10-30T14:39:52;21.20;99.90
29237;DHT22;16266;50.866;4.398;2022-10-30T14:53:04;20.40;99.90
29237;DHT22;16266;50.866;4.398;2022-10-30T14:55:45;20.40;99.90
29237;DHT22;16266;50.866;4.398;2022-10-30T14:58:20;20.30;99.90
29237;DHT22;16266;50.866;4.398;2022-10-30T15:00:48;20.40;99.90
29237;DHT22;16266;50.866;4.398;2022-10-30T15:06:31;20.20;99.90
29237;DHT22;16266;50.866;4.398;2022-10-30T15:12:22;19.90;99.90
29237;DHT22;16266;50.866;4.398;2022-10-30T15:14:57;19.90;99.90
29237;DHT22;16266;50.866;4.398;2022-10-30T15:17:35;19.80;99.90
29237;DHT22;16266;50.866;4.398;2022-10-30T15:20:05;19.70;99.90
29237;DHT22;16266;50.866;4.398;2022-10-30T15:22:33;19.80;99.90
29237;DHT22;16266;50.866;4.398;2022-10-30T15:25:01;19.80;99.90
29237;DHT22;16266;50.866;4.398;2022-10-30T15:27:28;19.80;99.90
29237;DHT22;16266;50.866;4.398;2022-10-30T15:29:57;19.80;99.90
29237;DHT22;16266;50.866;4.398;2022-10-30T15:32:23;19.80;99.90
29237;DHT22;16266;50.866;4.398;2022-10-30T15:35:03;19.80;99.90
29237;DHT22;16266;50.866;4.398;2022-10-30T15:37:29;19.80;99.90
29237;DHT22;16266;50.866;4.398;2022-10-30T15:40:22;19.70;99.90
29237;DHT22;16266;50.866;4.398;2022-10-30T15:42:48;19.70;99.90
29237;DHT22;16266;50.866;4.398;2022-10-30T15:45:28;19.70;99.90
29237;DHT22;16266;50.866;4.398;2022-10-30T15:53:42;19.30;99.90
29237;DHT22;16266;50.866;4.398;2022-10-30T15:56:34;19.20;99.90
29237;DHT22;16266;50.866;4.398;2022-10-30T15:59:06;19.10;99.90
29237;DHT22;16266;50.866;4.398;2022-10-30T16:01:43;19.10;99.90
29237;DHT22;16266;50.866;4.398;2022-10-30T16:04:18;19.10;99.90
29237;DHT22;16266;50.866;4.398;2022-10-30T16:06:58;18.90;99.90
29237;DHT22;16266;50.866;4.398;2022-10-30T16:09:26;18.90;99.90
29237;DHT22;16266;50.866;4.398;2022-10-30T16:11:57;18.80;99.90
29237;DHT22;16266;50.866;4.398;2022-10-30T16:14:30;18.70;99.90
29237;DHT22;16266;50.866;4.398;2022-10-30T16:16:59;18.80;99.90
29237;DHT22;16266;50.866;4.398;2022-10-30T16:19:30;18.90;99.90
29237;DHT22;16266;50.866;4.398;2022-10-30T16:21:59;18.70;99.90
29237;DHT22;16266;50.866;4.398;2022-10-30T16:24:32;18.80;99.90
29237;DHT22;16266;50.866;4.398;2022-10-30T16:29:31;18.60;99.90
29237;DHT22;16266;50.866;4.398;2022-10-30T16:31:58;18.70;99.90
29237;DHT22;16266;50.866;4.398;2022-10-30T16:34:30;18.70;99.90
29237;DHT22;16266;50.866;4.398;2022-10-30T16:37:03;18.70;99.90
29237;DHT22;16266;50.866;4.398;2022-10-30T16:39:33;18.70;99.90
29237;DHT22;16266;50.866;4.398;2022-10-30T16:42:01;18.50;99.90
29237;DHT22;16266;50.866;4.398;2022-10-30T16:44:34;18.50;99.90
29237;DHT22;16266;50.866;4.398;2022-10-30T16:47:23;18.40;99.90
29237;DHT22;16266;50.866;4.398;2022-10-30T16:49:57;18.40;99.90
29237;DHT22;16266;50.866;4.398;2022-10-30T16:52:29;18.30;99.90
29237;DHT22;16266;50.866;4.398;2022-10-30T16:55:07;18.20;99.90
29237;DHT22;16266;50.866;4.398;2022-10-30T16:57:40;18.20;99.90
29237;DHT22;16266;50.866;4.398;2022-10-30T17:00:18;18.20;99.90
29237;DHT22;16266;50.866;4.398;2022-10-30T17:02:46;18.10;99.90
29237;DHT22;16266;50.866;4.398;2022-10-30T17:05:19;18.00;99.90
29237;DHT22;16266;50.866;4.398;2022-10-30T17:10:43;17.90;99.90
29237;DHT22;16266;50.866;4.398;2022-10-30T17:15:54;17.60;99.90
29237;DHT22;16266;50.866;4.398;2022-10-30T17:18:30;17.60;99.90
29237;DHT22;16266;50.866;4.398;2022-10-30T17:21:09;17.70;99.90
29237;DHT22;16266;50.866;4.398;2022-10-30T17:23:50;17.70;99.90
29237;DHT22;16266;50.866;4.398;2022-10-30T17:26:21;17.70;99.90
29237;DHT22;16266;50.866;4.398;2022-10-30T17:28:49;17.60;99.90
29237;DHT22;16266;50.866;4.398;2022-10-30T17:34:23;17.30;99.90
29237;DHT22;16266;50.866;4.398;2022-10-30T17:36:51;17.20;99.90
29237;DHT22;16266;50.866;4.398;2022-10-30T17:39:18;17.10;99.90
29237;DHT22;16266;50.866;4.398;2022-10-30T17:41:48;17.00;99.90
29237;DHT22;16266;50.866;4.398;2022-10-30T17:44:18;17.10;99.90
29237;DHT22;16266;50.866;4.398;2022-10-30T17:46:46;17.00;99.90
29237;DHT22;16266;50.866;4.398;2022-10-30T17:49:31;17.00;99.90
29237;DHT22;16266;50.866;4.398;2022-10-30T17:51:58;16.90;99.90
29237;DHT22;16266;50.866;4.398;2022-10-30T17:54:23;16.80;99.90
29237;DHT22;16266;50.866;4.398;2022-10-30T17:56:50;16.80;99.90
29237;DHT22;16266;50.866;4.398;2022-10-30T17:59:16;16.60;99.90